Time;durP1;ratioP1;P1;durP2;ratioP2;P2;SDS_P1;SDS_P2;PMS_P1;PMS_P2;Temp;Humidity;BMP_temperature;BMP_pressure;BME280_temperature;BME280_humidity;BME280_pressure;Samples;Min_cycle;Max_cycle;Signal;HPM_P1;HPM_P2
2023/01/08 00:01:24;;;;;;;;;;;;;;;26.38;58.12;100977.03;5077985;27;69784;-38
2023/01/08 00:03:54;;;;;;;;;;;;;;;26.39;59.86;100977.88;5060107;28;66451;-37
2023/01/08 00:06:37;;;;;;;;;;;;;;;26.41;61.42;100983.88;5081300;27;70003;-37
2023/01/08 00:09:17;;;;;;;;;;;;;;;26.45;62.50;100999.47;5075777;27;67089;-37
2023/01/08 00:12:05;;;;;;;;;;;;;;;26.48;63.82;100998.25;5084150;27;69930;-36
2023/01/08 00:14:36;;;;;;;;;;;;;;;26.55;64.29;100992.97;5073372;27;65474;-36
2023/01/08 00:17:07;;;;;;;;;;;;;;;26.61;64.05;101001.16;5048716;27;69719;-38
2023/01/08 00:19:40;;;;;;;;;;;;;;;26.72;63.91;100997.97;5077123;27;66676;-36
2023/01/08 00:22:11;;;;;;;;;;;;;;;26.81;63.56;101003.25;5075912;27;70356;-37
2023/01/08 00:24:42;;;;;;;;;;;;;;;26.86;63.22;100996.25;5063475;27;66356;-39
2023/01/08 00:27:13;;;;;;;;;;;;;;;26.93;63.07;101010.63;5074376;27;70617;-37
2023/01/08 00:29:44;;;;;;;;;;;;;;;26.98;62.74;101011.91;5079018;27;66741;-36
2023/01/08 00:32:15;;;;;;;;;;;;;;;27.01;62.89;101015.06;5065885;27;69687;-37
2023/01/08 00:34:47;;;;;;;;;;;;;;;27.07;62.33;101011.59;5081022;27;66293;-38
2023/01/08 00:37:18;;;;;;;;;;;;;;;27.12;62.58;101017.25;5061485;28;70250;-37
2023/01/08 00:39:50;;;;;;;;;;;;;;;27.13;62.03;101013.50;5076758;27;65751;-37
2023/01/08 00:42:20;;;;;;;;;;;;;;;27.17;61.94;101020.22;5074380;27;70400;-36
2023/01/08 00:44:52;;;;;;;;;;;;;;;27.20;61.98;101018.19;5077338;27;66554;-36
2023/01/08 00:47:23;;;;;;;;;;;;;;;27.20;62.00;101027.09;5072930;27;69278;-35
2023/01/08 00:49:53;;;;;;;;;;;;;;;27.02;62.47;101035.56;5078799;27;66021;-37
2023/01/08 00:52:28;;;;;;;;;;;;;;;26.63;62.37;100976.72;5079358;27;63394;-36
2023/01/08 00:54:58;;;;;;;;;;;;;;;26.99;62.63;101038.63;5077203;27;66467;-38
2023/01/08 00:57:33;;;;;;;;;;;;;;;27.02;62.95;101034.72;5080511;27;69424;-34
2023/01/08 01:00:05;;;;;;;;;;;;;;;27.03;62.42;101039.94;5078182;27;67198;-36
2023/01/08 01:02:36;;;;;;;;;;;;;;;27.24;62.83;101041.00;5074637;27;69424;-37
2023/01/08 01:05:08;;;;;;;;;;;;;;;27.44;62.17;101035.78;5071395;27;66034;-37
2023/01/08 01:07:39;;;;;;;;;;;;;;;27.47;62.04;101036.25;5071240;27;70170;-37
2023/01/08 01:10:11;;;;;;;;;;;;;;;27.50;62.35;101041.25;5080379;27;66372;-38
2023/01/08 01:12:42;;;;;;;;;;;;;;;27.51;62.29;101052.88;5078243;27;70483;-37
2023/01/08 01:15:14;;;;;;;;;;;;;;;27.53;62.39;101045.44;5076915;27;67598;-39
2023/01/08 01:17:45;;;;;;;;;;;;;;;27.54;62.07;101047.09;5076218;27;69980;-37
2023/01/08 01:20:16;;;;;;;;;;;;;;;27.56;62.20;101045.88;5079175;27;66691;-39
2023/01/08 01:22:46;;;;;;;;;;;;;;;27.59;61.98;101044.66;5064504;27;69899;-37
2023/01/08 01:25:17;;;;;;;;;;;;;;;27.62;61.99;101050.47;5064941;27;66815;-37
2023/01/08 01:27:48;;;;;;;;;;;;;;;27.63;61.94;101044.06;5083998;27;71166;-39
2023/01/08 01:30:19;;;;;;;;;;;;;;;27.63;61.87;101045.91;5078756;27;66630;-40
2023/01/08 01:32:50;;;;;;;;;;;;;;;27.68;61.82;101043.47;5082562;27;69806;-37
2023/01/08 01:35:20;;;;;;;;;;;;;;;27.47;61.47;101022.78;5072037;27;65966;-37
2023/01/08 01:37:51;;;;;;;;;;;;;;;27.72;61.43;101055.56;5068773;27;68911;-37
2023/01/08 01:40:22;;;;;;;;;;;;;;;27.73;61.50;101056.38;5073983;27;67789;-37
2023/01/08 01:42:52;;;;;;;;;;;;;;;27.76;61.21;101053.28;5071985;27;69760;-37
2023/01/08 01:45:26;;;;;;;;;;;;;;;27.78;61.20;101054.75;5077675;27;67956;-37
2023/01/08 01:47:59;;;;;;;;;;;;;;;27.76;61.44;101056.81;5073829;27;70119;-41
2023/01/08 01:50:37;;;;;;;;;;;;;;;27.80;61.03;101052.75;5072713;27;66197;-36
2023/01/08 01:53:26;;;;;;;;;;;;;;;27.83;61.27;101057.75;5057600;28;69144;-38
2023/01/08 01:55:57;;;;;;;;;;;;;;;27.85;61.30;101054.84;5056381;28;66609;-38
2023/01/08 01:58:29;;;;;;;;;;;;;;;27.85;61.04;101060.22;5076908;27;69707;-36
2023/01/08 02:01:02;;;;;;;;;;;;;;;27.85;60.66;101052.13;5067253;27;66711;-37
2023/01/08 02:03:35;;;;;;;;;;;;;;;27.87;60.74;101052.78;5080961;27;70356;-37
2023/01/08 02:06:12;;;;;;;;;;;;;;;27.84;61.05;101059.41;5078393;27;66109;-37
2023/01/08 02:08:54;;;;;;;;;;;;;;;27.85;61.10;101044.06;5077921;27;69747;-40
2023/01/08 02:11:43;;;;;;;;;;;;;;;27.83;61.06;101054.19;5079778;27;66665;-37
2023/01/08 02:14:23;;;;;;;;;;;;;;;27.84;60.98;101055.88;5082322;27;70309;-41
2023/01/08 02:17:00;;;;;;;;;;;;;;;27.65;61.36;101053.81;5066563;27;65582;-37
2023/01/08 02:19:37;;;;;;;;;;;;;;;27.61;61.33;101053.38;5076403;27;69455;-35
2023/01/08 02:22:14;;;;;;;;;;;;;;;27.60;61.33;101046.31;5076540;27;68268;-37
2023/01/08 02:24:54;;;;;;;;;;;;;;;27.67;61.54;101062.56;5071381;27;71028;-38
2023/01/08 02:27:27;;;;;;;;;;;;;;;27.70;61.47;101062.16;5085207;27;65374;-37
2023/01/08 02:29:59;;;;;;;;;;;;;;;27.45;61.14;101016.75;5084361;27;70588;-37
2023/01/08 02:32:36;;;;;;;;;;;;;;;27.75;61.26;101065.06;5080324;27;65605;-39
2023/01/08 02:35:07;;;;;;;;;;;;;;;27.78;61.21;101059.31;5081087;27;69505;-37
2023/01/08 02:37:38;;;;;;;;;;;;;;;27.82;61.26;101063.31;5081545;27;66940;-38
2023/01/08 02:40:18;;;;;;;;;;;;;;;27.84;60.95;101062.09;5076762;27;69357;-40
2023/01/08 02:42:49;;;;;;;;;;;;;;;27.87;60.78;101060.88;5082062;27;66616;-39
2023/01/08 02:45:30;;;;;;;;;;;;;;;27.91;60.72;101070.22;5081889;27;70129;-37
2023/01/08 02:48:07;;;;;;;;;;;;;;;27.94;60.79;101063.59;5089100;27;65744;-38
2023/01/08 02:50:48;;;;;;;;;;;;;;;27.96;60.57;101062.38;5083889;27;70598;-41
2023/01/08 02:53:24;;;;;;;;;;;;;;;27.98;60.88;101065.72;5077377;27;65959;-37
2023/01/08 02:55:58;;;;;;;;;;;;;;;28.00;60.47;101060.97;5084701;27;69311;-39
2023/01/08 02:58:30;;;;;;;;;;;;;;;28.03;60.76;101062.44;5074601;27;65532;-38
2023/01/08 03:01:06;;;;;;;;;;;;;;;28.06;60.31;101062.88;5063407;27;70555;-38
2023/01/08 03:03:38;;;;;;;;;;;;;;;28.10;60.45;101057.09;5053560;27;66342;-39
2023/01/08 03:06:13;;;;;;;;;;;;;;;28.12;60.40;101061.25;5078089;27;70325;-38
2023/01/08 03:08:45;;;;;;;;;;;;;;;28.14;60.14;101058.34;5079185;27;66757;-38
2023/01/08 03:11:20;;;;;;;;;;;;;;;28.15;60.41;101054.63;5082335;27;70685;-38
2023/01/08 03:13:57;;;;;;;;;;;;;;;28.21;60.34;101053.84;5062054;27;65989;-40
2023/01/08 03:16:35;;;;;;;;;;;;;;;28.23;60.32;101057.19;5044582;28;67931;-40
2023/01/08 03:19:25;;;;;;;;;;;;;;;28.23;60.30;101052.63;5092939;27;65686;-38
2023/01/08 03:21:57;;;;;;;;;;;;;;;28.26;59.90;101051.38;5076720;27;69385;-40
2023/01/08 03:24:31;;;;;;;;;;;;;;;28.27;60.15;101053.03;5066052;28;67720;-39
2023/01/08 03:27:04;;;;;;;;;;;;;;;28.28;59.82;101044.78;5058208;27;70621;-38
2023/01/08 03:29:35;;;;;;;;;;;;;;;28.49;60.15;101045.72;5071637;27;66335;-40
2023/01/08 03:32:10;;;;;;;;;;;;;;;28.51;59.87;101055.28;5075162;27;70247;-37
2023/01/08 03:34:42;;;;;;;;;;;;;;;28.53;60.03;101049.72;5067497;27;66771;-44
2023/01/08 03:37:14;;;;;;;;;;;;;;;28.51;60.04;101049.88;5080451;27;70738;-40
2023/01/08 03:39:48;;;;;;;;;;;;;;;28.49;60.44;101051.94;5080513;27;66496;-39
2023/01/08 03:42:19;;;;;;;;;;;;;;;28.49;60.50;101045.72;5084309;27;70400;-40
2023/01/08 03:44:50;;;;;;;;;;;;;;;28.56;60.23;101046.59;5085767;27;66303;-37
2023/01/08 03:47:22;;;;;;;;;;;;;;;28.54;60.47;101047.84;5083353;27;69437;-37
2023/01/08 03:49:54;;;;;;;;;;;;;;;28.54;60.49;101045.13;5085569;27;66533;-39
2023/01/08 03:52:27;;;;;;;;;;;;;;;28.55;60.57;101041.38;5082507;27;70211;-41
2023/01/08 03:54:58;;;;;;;;;;;;;;;28.57;60.87;101047.44;5054396;27;65859;-39
2023/01/08 03:57:30;;;;;;;;;;;;;;;28.56;60.75;101043.06;5086567;27;69080;-37
2023/01/08 04:00:01;;;;;;;;;;;;;;;28.61;60.56;101046.84;5084002;27;66028;-41
2023/01/08 04:02:32;;;;;;;;;;;;;;;28.61;60.86;101043.28;5081489;27;69876;-38
2023/01/08 04:05:03;;;;;;;;;;;;;;;28.61;60.78;101037.88;5087429;27;66154;-39
2023/01/08 04:07:34;;;;;;;;;;;;;;;28.61;61.13;101041.44;5084102;27;70448;-37
2023/01/08 04:10:05;;;;;;;;;;;;;;;28.62;60.99;101034.16;5083921;27;66262;-38
2023/01/08 04:12:36;;;;;;;;;;;;;;;28.63;61.42;101035.81;5079471;27;70364;-41
2023/01/08 04:15:07;;;;;;;;;;;;;;;28.63;62.00;101031.25;5089010;27;65762;-38
2023/01/08 04:17:37;;;;;;;;;;;;;;;28.63;62.67;101033.94;5089644;27;68947;-37
2023/01/08 04:20:08;;;;;;;;;;;;;;;28.65;62.29;101029.19;5064841;27;66654;-38
2023/01/08 04:22:40;;;;;;;;;;;;;;;28.67;62.90;101031.69;5084080;27;69663;-42
2023/01/08 04:25:11;;;;;;;;;;;;;;;28.70;62.87;101021.31;5053950;27;66653;-39
2023/01/08 04:27:41;;;;;;;;;;;;;;;28.71;63.34;101011.34;5081002;27;69513;-38
2023/01/08 04:30:13;;;;;;;;;;;;;;;28.72;64.28;101013.00;5082414;27;66466;-40
2023/01/08 04:32:44;;;;;;;;;;;;;;;28.73;64.02;101014.69;5079204;27;70443;-37
2023/01/08 04:35:15;;;;;;;;;;;;;;;28.76;64.33;101019.69;5082858;27;66718;-37
2023/01/08 04:37:45;;;;;;;;;;;;;;;28.65;64.89;101012.16;5072462;27;69847;-39
2023/01/08 04:40:16;;;;;;;;;;;;;;;28.67;64.45;101008.25;5089967;27;67034;-38
2023/01/08 04:42:47;;;;;;;;;;;;;;;28.73;64.02;101009.28;5068604;27;69475;-37
2023/01/08 04:45:17;;;;;;;;;;;;;;;28.79;63.69;101002.25;5086670;27;65840;-38
2023/01/08 04:47:48;;;;;;;;;;;;;;;28.83;63.84;100998.09;5085014;27;70418;-40
2023/01/08 04:50:19;;;;;;;;;;;;;;;28.90;63.67;101005.19;5080395;27;67007;-37
2023/01/08 04:52:50;;;;;;;;;;;;;;;28.92;64.23;101002.28;5084494;27;70931;-38
2023/01/08 04:55:21;;;;;;;;;;;;;;;28.96;63.37;100996.25;5081790;27;66865;-41
2023/01/08 04:57:51;;;;;;;;;;;;;;;29.02;63.96;100991.09;5058582;27;70345;-38
2023/01/08 05:00:23;;;;;;;;;;;;;;;29.15;63.01;100993.84;5069317;27;64474;-38
2023/01/08 05:02:54;;;;;;;;;;;;;;;29.17;63.83;100994.47;5073227;27;70212;-36
2023/01/08 05:05:25;;;;;;;;;;;;;;;29.06;63.05;100984.25;5079571;27;66023;-39
2023/01/08 05:07:55;;;;;;;;;;;;;;;28.94;59.09;100984.81;5064410;28;69393;-38
2023/01/08 05:10:26;;;;;;;;;;;;;;;28.81;57.10;100973.19;5091123;27;65707;-38
2023/01/08 05:13:00;;;;;;;;;;;;;;;28.66;55.42;100976.84;5063065;27;71041;-42
2023/01/08 05:15:31;;;;;;;;;;;;;;;28.56;55.04;100965.63;5064333;27;64770;-37
2023/01/08 05:18:04;;;;;;;;;;;;;;;28.49;54.42;100962.91;5080675;27;69786;-40
2023/01/08 05:20:34;;;;;;;;;;;;;;;28.41;53.26;100971.13;5060131;27;65493;-41
2023/01/08 05:23:06;;;;;;;;;;;;;;;28.35;52.29;100969.25;5059701;27;69097;-40
2023/01/08 05:25:37;;;;;;;;;;;;;;;28.27;51.44;100962.16;5054564;27;67991;-38
2023/01/08 05:28:08;;;;;;;;;;;;;;;28.16;49.94;100959.19;5083435;27;70694;-39
2023/01/08 05:30:38;;;;;;;;;;;;;;;28.11;49.38;100950.88;5072249;27;65130;-40
2023/01/08 05:33:09;;;;;;;;;;;;;;;28.04;48.35;100950.84;5032898;27;70165;-39
2023/01/08 05:35:40;;;;;;;;;;;;;;;28.00;48.46;100947.72;5041386;27;65410;-41
2023/01/08 05:38:11;;;;;;;;;;;;;;;27.95;49.14;100947.50;5059674;27;69183;-42
2023/01/08 05:40:41;;;;;;;;;;;;;;;27.88;48.75;100946.59;5067476;27;67904;-39
2023/01/08 05:43:12;;;;;;;;;;;;;;;27.87;47.82;100939.56;5077137;27;70809;-42
2023/01/08 05:45:43;;;;;;;;;;;;;;;27.83;47.43;100944.53;5062614;28;65526;-41
2023/01/08 05:48:15;;;;;;;;;;;;;;;27.80;46.69;100944.91;5078443;27;70583;-40
2023/01/08 05:50:47;;;;;;;;;;;;;;;27.79;47.02;100942.38;5080596;27;65079;-43
2023/01/08 05:53:18;;;;;;;;;;;;;;;27.77;47.12;100939.88;5042396;27;69235;-41
2023/01/08 05:55:49;;;;;;;;;;;;;;;27.75;46.35;100931.16;5079210;27;68031;-41
2023/01/08 05:58:22;;;;;;;;;;;;;;;27.73;46.46;100935.09;5078314;27;69095;-40
2023/01/08 06:00:53;;;;;;;;;;;;;;;27.70;45.19;100935.50;5078385;27;66042;-40
2023/01/08 06:03:24;;;;;;;;;;;;;;;27.67;45.03;100930.50;5083940;27;69144;-42
2023/01/08 06:06:01;;;;;;;;;;;;;;;27.63;44.57;100920.09;5082439;27;66443;-42
2023/01/08 06:08:33;;;;;;;;;;;;;;;27.62;44.05;100925.69;5087527;27;69296;-41
2023/01/08 06:11:05;;;;;;;;;;;;;;;27.58;43.26;100914.47;5082698;27;65676;-39
2023/01/08 06:13:36;;;;;;;;;;;;;;;27.53;42.96;100916.94;5073755;27;69957;-38
2023/01/08 06:16:08;;;;;;;;;;;;;;;27.50;43.34;100911.94;5066928;28;65425;-38
2023/01/08 06:18:39;;;;;;;;;;;;;;;27.48;42.98;100913.16;5073448;27;69519;-38
2023/01/08 06:21:12;;;;;;;;;;;;;;;27.47;43.10;100898.88;5082612;27;66980;-39
2023/01/08 06:23:44;;;;;;;;;;;;;;;27.47;43.05;100901.56;5095096;27;70083;-39
2023/01/08 06:26:14;;;;;;;;;;;;;;;27.46;42.85;100905.25;5083466;27;65258;-38
2023/01/08 06:28:45;;;;;;;;;;;;;;;27.47;43.63;100896.16;5085178;27;71045;-39
2023/01/08 06:31:16;;;;;;;;;;;;;;;27.47;43.30;100893.47;5086416;27;66197;-42
2023/01/08 06:33:47;;;;;;;;;;;;;;;27.49;44.12;100894.09;5061828;28;70622;-39
2023/01/08 06:36:17;;;;;;;;;;;;;;;27.49;43.95;100896.78;5085346;27;65937;-39
2023/01/08 06:38:49;;;;;;;;;;;;;;;27.53;44.10;100884.59;5043127;27;70416;-40
2023/01/08 06:41:20;;;;;;;;;;;;;;;27.53;44.16;100884.59;5083244;27;65997;-40
2023/01/08 06:43:51;;;;;;;;;;;;;;;27.53;43.81;100883.78;5078246;27;68873;-40
2023/01/08 06:46:22;;;;;;;;;;;;;;;27.53;44.44;100881.06;5063891;27;65761;-40
2023/01/08 06:48:55;;;;;;;;;;;;;;;27.51;44.10;100870.47;5018053;28;69797;-40
2023/01/08 06:51:26;;;;;;;;;;;;;;;27.52;44.40;100872.13;5064138;27;65900;-41
2023/01/08 06:53:58;;;;;;;;;;;;;;;27.52;44.18;100871.31;5056860;27;69628;-38
2023/01/08 06:56:29;;;;;;;;;;;;;;;27.52;44.10;100876.69;5042457;28;64909;-40
2023/01/08 06:59:08;;;;;;;;;;;;;;;27.50;44.42;100868.81;5082654;27;69146;-38
2023/01/08 07:01:39;;;;;;;;;;;;;;;27.51;44.37;100867.78;5077390;27;65903;-37
2023/01/08 07:04:09;;;;;;;;;;;;;;;27.49;44.19;100867.16;5064159;27;70196;-42
2023/01/08 07:06:40;;;;;;;;;;;;;;;27.50;44.50;100868.81;5082447;27;65238;-37
2023/01/08 07:09:12;;;;;;;;;;;;;;;27.50;44.11;100868.81;5083940;27;68710;-38
2023/01/08 07:11:43;;;;;;;;;;;;;;;27.49;43.92;100867.16;5059907;28;66170;-41
2023/01/08 07:14:15;;;;;;;;;;;;;;;27.48;43.89;100868.19;5080677;27;69590;-39
2023/01/08 07:16:46;;;;;;;;;;;;;;;27.49;44.17;100856.38;5060492;28;66949;-39
2023/01/08 07:19:17;;;;;;;;;;;;;;;27.55;44.21;100858.28;5078423;27;71512;-40
2023/01/08 07:21:48;;;;;;;;;;;;;;;27.65;44.87;100855.22;5077389;27;65618;-37
2023/01/08 07:24:19;;;;;;;;;;;;;;;27.76;45.43;100846.56;5079567;27;70104;-39
2023/01/08 07:26:50;;;;;;;;;;;;;;;27.87;46.11;100847.91;5076611;27;67023;-41
2023/01/08 07:29:20;;;;;;;;;;;;;;;27.98;46.86;100850.03;5077950;27;69555;-37
2023/01/08 07:31:51;;;;;;;;;;;;;;;28.06;46.91;100846.31;5059933;27;66883;-38
2023/01/08 07:34:22;;;;;;;;;;;;;;;28.15;47.10;100849.66;5081219;27;70152;-38
2023/01/08 07:36:53;;;;;;;;;;;;;;;28.26;47.62;100847.22;5077061;27;66098;-37
2023/01/08 07:39:24;;;;;;;;;;;;;;;28.32;47.97;100840.16;5067503;27;68675;-38
2023/01/08 07:41:55;;;;;;;;;;;;;;;28.40;47.90;100837.28;5079292;27;66060;-37
2023/01/08 07:44:25;;;;;;;;;;;;;;;28.44;48.24;100838.53;5065069;28;69917;-38
2023/01/08 07:46:56;;;;;;;;;;;;;;;28.51;48.30;100827.78;5049062;27;66167;-38
2023/01/08 07:49:27;;;;;;;;;;;;;;;28.55;48.77;100825.50;5073913;27;70775;-41
2023/01/08 07:51:57;;;;;;;;;;;;;;;28.62;49.27;100829.06;5081861;27;66070;-39
2023/01/08 07:54:28;;;;;;;;;;;;;;;28.68;49.11;100830.91;5076455;27;70199;-42
2023/01/08 07:56:59;;;;;;;;;;;;;;;28.74;49.79;100830.09;5079555;27;65965;-40
2023/01/08 07:59:30;;;;;;;;;;;;;;;28.79;50.03;100830.28;5075438;27;69373;-41
2023/01/08 08:02:01;;;;;;;;;;;;;;;28.84;49.68;100822.41;5081046;27;66734;-41
2023/01/08 08:04:32;;;;;;;;;;;;;;;28.88;50.03;100829.03;5057597;27;71301;-39
2023/01/08 08:07:03;;;;;;;;;;;;;;;28.93;50.69;100831.94;5079041;27;66919;-38
2023/01/08 08:09:34;;;;;;;;;;;;;;;28.98;50.57;100817.00;5076760;27;70212;-37
2023/01/08 08:12:04;;;;;;;;;;;;;;;29.02;51.92;100815.53;5077115;27;65548;-39
2023/01/08 08:14:35;;;;;;;;;;;;;;;29.02;52.40;100818.25;5076502;27;69723;-39
2023/01/08 08:17:06;;;;;;;;;;;;;;;29.07;52.44;100818.47;5052751;27;66450;-40
2023/01/08 08:19:37;;;;;;;;;;;;;;;29.07;54.64;100810.38;5066821;27;70192;-40
2023/01/08 08:22:08;;;;;;;;;;;;;;;29.08;57.31;100812.84;5052497;27;66580;-39
2023/01/08 08:24:40;;;;;;;;;;;;;;;29.16;58.31;100814.50;5066701;27;69844;-39
2023/01/08 08:27:11;;;;;;;;;;;;;;;29.15;58.79;100810.16;5062237;27;66720;-40
2023/01/08 08:29:42;;;;;;;;;;;;;;;29.18;59.34;100807.84;5063558;27;70746;-40
2023/01/08 08:32:12;;;;;;;;;;;;;;;29.22;59.71;100802.84;5064630;27;65165;-40
2023/01/08 08:34:44;;;;;;;;;;;;;;;29.25;60.56;100802.44;5043789;27;69748;-38
2023/01/08 08:37:15;;;;;;;;;;;;;;;29.28;60.46;100807.44;5063351;27;66035;-41
2023/01/08 08:39:45;;;;;;;;;;;;;;;29.29;60.60;100809.09;5038099;28;68238;-40
2023/01/08 08:42:17;;;;;;;;;;;;;;;29.32;60.89;100813.25;5063037;27;66736;-39
2023/01/08 08:44:48;;;;;;;;;;;;;;;29.31;60.66;100807.00;5062300;27;69864;-39
2023/01/08 08:47:19;;;;;;;;;;;;;;;29.35;61.04;100808.22;5063482;27;66646;-40
2023/01/08 08:49:50;;;;;;;;;;;;;;;29.37;60.75;100808.84;5038816;27;69357;-41
2023/01/08 08:52:20;;;;;;;;;;;;;;;29.42;61.15;100801.97;5065318;27;66154;-41
2023/01/08 08:54:51;;;;;;;;;;;;;;;29.38;61.30;100807.81;5062764;27;69953;-38
2023/01/08 08:57:25;;;;;;;;;;;;;;;29.38;60.92;100806.97;5071960;27;65898;-39
2023/01/08 08:59:56;;;;;;;;;;;;;;;29.42;61.17;100801.97;5059300;27;69771;-41
2023/01/08 09:02:29;;;;;;;;;;;;;;;29.40;61.46;100800.31;5061464;27;67001;-40
2023/01/08 09:05:00;;;;;;;;;;;;;;;29.42;61.09;100796.56;5065656;27;69331;-40
2023/01/08 09:07:31;;;;;;;;;;;;;;;29.42;61.20;100796.56;5076022;27;67143;-40
2023/01/08 09:10:03;;;;;;;;;;;;;;;29.42;61.70;100791.16;5077972;27;71494;-38
2023/01/08 09:12:33;;;;;;;;;;;;;;;29.43;61.43;100803.66;5041289;27;65309;-39
2023/01/08 09:15:04;;;;;;;;;;;;;;;29.43;62.01;100798.25;5076197;27;69900;-41
2023/01/08 09:17:35;;;;;;;;;;;;;;;29.42;61.98;100797.44;5073218;27;66693;-39
2023/01/08 09:20:07;;;;;;;;;;;;;;;29.34;62.55;100801.19;5075087;27;70266;-38
2023/01/08 09:22:38;;;;;;;;;;;;;;;29.35;62.13;100805.53;5074128;27;66016;-38
2023/01/08 09:25:08;;;;;;;;;;;;;;;29.39;61.88;100798.69;5073870;27;69227;-38
2023/01/08 09:27:40;;;;;;;;;;;;;;;29.45;61.52;100804.25;5075980;27;66028;-39
2023/01/08 09:30:11;;;;;;;;;;;;;;;29.48;61.50;100801.97;5079984;27;70417;-37
2023/01/08 09:32:42;;;;;;;;;;;;;;;29.50;61.25;100799.88;5084671;27;66712;-37
2023/01/08 09:35:13;;;;;;;;;;;;;;;29.56;61.19;100806.28;5080513;27;69886;-37
2023/01/08 09:37:49;;;;;;;;;;;;;;;29.62;61.67;100805.47;5082659;27;65821;-40
2023/01/08 09:40:21;;;;;;;;;;;;;;;29.68;61.24;100812.75;5076203;27;69626;-38
2023/01/08 09:42:56;;;;;;;;;;;;;;;29.70;61.47;100816.06;5075328;27;65303;-38
2023/01/08 09:45:29;;;;;;;;;;;;;;;29.72;62.56;100816.66;5076830;27;69071;-38
2023/01/08 09:48:03;;;;;;;;;;;;;;;29.74;61.68;100817.28;5079922;27;66351;-38
2023/01/08 09:50:35;;;;;;;;;;;;;;;29.77;62.13;100822.25;5064073;27;69421;-38
2023/01/08 09:53:13;;;;;;;;;;;;;;;29.77;62.02;100816.84;5079266;27;66291;-41
2023/01/08 09:55:45;;;;;;;;;;;;;;;29.77;61.58;100816.84;5079834;27;67977;-38
2023/01/08 09:58:30;;;;;;;;;;;;;;;29.78;61.59;100821.25;5078517;27;66379;-38
2023/01/08 10:01:02;;;;;;;;;;;;;;;29.79;62.29;100819.38;5076072;27;71141;-40
2023/01/08 10:03:45;;;;;;;;;;;;;;;29.80;62.26;100827.25;5064705;27;66678;-38
2023/01/08 10:06:17;;;;;;;;;;;;;;;29.80;62.43;100827.25;5077109;27;70232;-38
2023/01/08 10:08:49;;;;;;;;;;;;;;;29.82;62.35;100827.88;5077117;27;66499;-40
2023/01/08 10:11:20;;;;;;;;;;;;;;;29.83;62.08;100836.81;5083779;27;70942;-37
2023/01/08 10:13:53;;;;;;;;;;;;;;;29.83;62.24;100837.63;5076908;27;66412;-38
2023/01/08 10:16:32;;;;;;;;;;;;;;;29.79;62.75;100831.00;5080097;27;69732;-37
2023/01/08 10:19:04;;;;;;;;;;;;;;;29.82;62.51;100845.97;5080468;27;66178;-39
2023/01/08 10:21:39;;;;;;;;;;;;;;;29.83;62.81;100847.63;5081750;27;69179;-37
2023/01/08 10:24:10;;;;;;;;;;;;;;;29.83;62.80;100859.25;5079576;27;66690;-37
2023/01/08 10:26:41;;;;;;;;;;;;;;;29.83;62.63;100864.66;5077124;27;69092;-39
2023/01/08 10:29:13;;;;;;;;;;;;;;;29.87;62.46;100862.38;5080190;27;66431;-38
2023/01/08 10:31:51;;;;;;;;;;;;;;;29.88;62.65;100871.31;5080101;27;69607;-37
2023/01/08 10:34:26;;;;;;;;;;;;;;;29.81;62.39;100864.06;5072839;27;66467;-39
2023/01/08 10:36:57;;;;;;;;;;;;;;;29.87;62.30;100875.09;5079212;27;70452;-37
2023/01/08 10:39:29;;;;;;;;;;;;;;;29.86;62.55;100873.41;5078841;27;66394;-37
2023/01/08 10:42:04;;;;;;;;;;;;;;;29.87;62.58;100884.03;5077092;27;70264;-39
2023/01/08 10:44:35;;;;;;;;;;;;;;;29.83;62.83;100883.59;5081745;27;66852;-38
2023/01/08 10:47:06;;;;;;;;;;;;;;;29.88;63.13;100887.53;5071755;27;69970;-38
2023/01/08 10:49:40;;;;;;;;;;;;;;;29.88;62.67;100884.84;5067596;27;67968;-38
2023/01/08 10:52:28;;;;;;;;;;;;;;;29.86;62.92;100884.22;5071518;27;70074;-42
2023/01/08 10:55:12;;;;;;;;;;;;;;;29.89;62.61;100894.59;5065801;27;66888;-40
2023/01/08 10:57:52;;;;;;;;;;;;;;;29.88;62.96;100898.38;5062182;27;69527;-38
2023/01/08 11:00:41;;;;;;;;;;;;;;;29.86;62.84;100905.84;5049055;27;65203;-41
2023/01/08 11:03:22;;;;;;;;;;;;;;;29.84;62.62;100906.09;5066179;27;69627;-38
2023/01/08 11:05:53;;;;;;;;;;;;;;;29.81;62.63;100904.63;5066795;27;66444;-39
2023/01/08 11:08:24;;;;;;;;;;;;;;;29.84;63.11;100915.03;5078545;27;70066;-40
2023/01/08 11:10:56;;;;;;;;;;;;;;;29.81;62.83;100920.00;5076169;27;66534;-38
2023/01/08 11:13:28;;;;;;;;;;;;;;;29.42;63.05;100858.72;5081867;27;69856;-39
2023/01/08 11:16:03;;;;;;;;;;;;;;;29.83;63.33;100934.97;5078860;27;65545;-37
2023/01/08 11:18:41;;;;;;;;;;;;;;;29.83;63.53;100931.44;5080897;27;69806;-39
2023/01/08 11:21:20;;;;;;;;;;;;;;;29.83;63.24;100937.69;5081341;27;66443;-39
2023/01/08 11:24:11;;;;;;;;;;;;;;;29.84;63.70;100941.22;5081026;27;70507;-37
2023/01/08 11:26:45;;;;;;;;;;;;;;;29.84;63.41;100947.47;5078533;27;67005;-37
2023/01/08 11:29:18;;;;;;;;;;;;;;;29.82;63.99;100941.44;5081871;27;69710;-38
2023/01/08 11:32:07;;;;;;;;;;;;;;;29.83;63.37;100942.25;5082856;27;66704;-37
2023/01/08 11:34:42;;;;;;;;;;;;;;;29.81;64.05;100950.59;5076049;27;70811;-38
2023/01/08 11:37:23;;;;;;;;;;;;;;;29.81;64.10;100953.31;5084024;27;66364;-38
2023/01/08 11:39:55;;;;;;;;;;;;;;;29.80;64.47;100958.91;5073684;27;69889;-39
2023/01/08 11:42:47;;;;;;;;;;;;;;;29.80;63.81;100972.44;5084555;27;66276;-38
2023/01/08 11:45:38;;;;;;;;;;;;;;;29.80;63.94;100967.03;5078821;27;69137;-37
2023/01/08 11:48:27;;;;;;;;;;;;;;;29.78;64.23;100991.59;5076410;27;66212;-38
2023/01/08 11:51:29;;;;;;;;;;;;;;;29.78;64.39;100986.19;5084751;27;70298;-38
2023/01/08 11:54:03;;;;;;;;;;;;;;;29.78;64.46;100986.19;5052474;27;66866;-38
2023/01/08 11:56:36;;;;;;;;;;;;;;;29.77;64.08;100989.91;5078702;27;70626;-38
2023/01/08 11:59:32;;;;;;;;;;;;;;;29.77;64.03;100989.91;5078601;27;67050;-39
2023/01/08 12:02:19;;;;;;;;;;;;;;;29.78;64.76;100994.28;5072069;27;69880;-38
2023/01/08 12:04:55;;;;;;;;;;;;;;;29.78;64.29;101002.41;5081975;27;66205;-38
2023/01/08 12:07:32;;;;;;;;;;;;;;;29.79;64.06;101004.06;5063582;27;70561;-39
2023/01/08 12:10:11;;;;;;;;;;;;;;;29.78;64.50;101006.94;5079480;27;66772;-40
2023/01/08 12:12:59;;;;;;;;;;;;;;;29.78;64.63;101010.50;5061310;27;70629;-37
2023/01/08 12:15:33;;;;;;;;;;;;;;;29.76;63.63;101026.09;5055041;27;65722;-40
2023/01/08 12:18:22;;;;;;;;;;;;;;;29.76;64.33;101015.28;5080322;27;70308;-37
2023/01/08 12:20:52;;;;;;;;;;;;;;;29.77;63.93;101033.16;5078389;27;66688;-41
2023/01/08 12:23:26;;;;;;;;;;;;;;;29.76;63.89;101031.50;5084329;27;69651;-39
2023/01/08 12:26:00;;;;;;;;;;;;;;;29.76;63.23;101036.09;5050104;28;66701;-39
2023/01/08 12:28:46;;;;;;;;;;;;;;;29.77;63.12;101037.75;5083593;27;69754;-40
2023/01/08 12:31:32;;;;;;;;;;;;;;;29.77;63.25;101038.56;5074660;27;67144;-38
2023/01/08 12:34:16;;;;;;;;;;;;;;;29.78;64.27;101051.06;5064383;27;69107;-38
2023/01/08 12:36:50;;;;;;;;;;;;;;;29.78;64.31;101051.06;5076089;27;66219;-38
2023/01/08 12:39:26;;;;;;;;;;;;;;;29.78;63.39;101048.38;5076235;27;69706;-40
2023/01/08 12:42:05;;;;;;;;;;;;;;;29.83;66.38;101058.53;5072936;27;66029;-37
2023/01/08 12:44:36;;;;;;;;;;;;;;;29.75;64.01;101058.75;5060346;27;69675;-44
2023/01/08 12:47:12;;;;;;;;;;;;;;;29.61;60.66;101057.88;5082795;27;66687;-42
2023/01/08 12:49:50;;;;;;;;;;;;;;;29.44;59.04;101060.16;5063454;27;69260;-42
2023/01/08 12:52:35;;;;;;;;;;;;;;;29.31;58.52;101069.09;5074488;27;65010;-41
2023/01/08 12:55:24;;;;;;;;;;;;;;;29.18;56.69;101066.34;5075992;27;69618;-43
2023/01/08 12:58:03;;;;;;;;;;;;;;;29.05;56.60;101069.03;5079827;27;66090;-44
2023/01/08 13:00:38;;;;;;;;;;;;;;;28.95;55.40;101077.50;5061764;27;69445;-43
2023/01/08 13:03:13;;;;;;;;;;;;;;;28.88;55.22;101077.44;5082436;27;66673;-42
2023/01/08 13:05:44;;;;;;;;;;;;;;;28.83;54.04;101074.50;5056603;27;70781;-41
2023/01/08 13:08:37;;;;;;;;;;;;;;;28.76;53.92;101072.84;5084171;27;65938;-45